首页
METAR-TAF:

METAR-TAF

机场 :

Odiham, 英格兰

纬度: 51-14N, 经度: 000-57W, 海拔: 123米

当前天气观测

该预报发布于35分钟前的07:50 UTC
风速7节,风向西
温度 8°C
湿度 71%
气压 1017 hPa
能见度10公里或以上

METAR: EGVO 030750Z AUTO 28007KT 9999 BKN045/// 08/03 Q1017

时间: 09:25 (08:25 UTC)

预报

该预报发布于13小时和9分钟前的19:16 UTC
预报有效从02日的 21点(UTC)到 03日的 09点(UTC)
风速8节,风向西
能见度10公里或以上
少量云层高于3000英尺
几率 30% :
短暂存在
从 03日的 00点(UTC)到 03日的 06点(UTC)
散云层高于2000英尺

TAF: EGVO 021916Z 0221/0309 28008KT 9999 FEW030 PROB30 TEMPO 0300/0306 SCT020

超过4000个机场的气象观测和天气预报(METAR&TAF报告)。

可查询的气象台以黄色和红色小点在地图上表示。

将鼠标移到小点上方,可查看气象台名称。

然后点击查看天气观测和预报。

如需切换地图:点击带黑十字的绿色按钮放大地图;点击带横线的绿色按钮缩小地图;或者点击绿色箭头查看邻近地区的地图。


METAR-TAF: